sensor_id;sensor_type;location;lat;lon;timestamp;P1;durP1;ratioP1;P2;durP2;ratioP2
21814;SDS011;11069;48.988;8.450;2023-08-21T00:01:27;11.18;;;8.63;;
21814;SDS011;11069;48.988;8.450;2023-08-21T00:03:53;9.13;;;8.10;;
21814;SDS011;11069;48.988;8.450;2023-08-21T00:06:18;10.45;;;8.48;;
21814;SDS011;11069;48.988;8.450;2023-08-21T00:08:44;11.50;;;9.00;;
21814;SDS011;11069;48.988;8.450;2023-08-21T00:11:09;9.38;;;8.25;;
21814;SDS011;11069;48.988;8.450;2023-08-21T00:13:35;12.07;;;9.45;;
21814;SDS011;11069;48.988;8.450;2023-08-21T00:16:00;10.60;;;8.70;;
21814;SDS011;11069;48.988;8.450;2023-08-21T00:18:26;11.30;;;9.55;;
21814;SDS011;11069;48.988;8.450;2023-08-21T00:20:52;14.60;;;9.73;;
21814;SDS011;11069;48.988;8.450;2023-08-21T00:23:17;11.32;;;9.85;;
21814;SDS011;11069;48.988;8.450;2023-08-21T00:25:46;10.55;;;9.32;;
21814;SDS011;11069;48.988;8.450;2023-08-21T00:28:12;11.48;;;9.27;;
21814;SDS011;11069;48.988;8.450;2023-08-21T00:30:38;11.23;;;9.75;;
21814;SDS011;11069;48.988;8.450;2023-08-21T00:33:04;11.40;;;9.80;;
21814;SDS011;11069;48.988;8.450;2023-08-21T00:35:30;11.73;;;10.25;;
21814;SDS011;11069;48.988;8.450;2023-08-21T00:37:56;11.07;;;9.52;;
21814;SDS011;11069;48.988;8.450;2023-08-21T00:40:21;11.95;;;9.55;;
21814;SDS011;11069;48.988;8.450;2023-08-21T00:42:47;13.18;;;8.98;;
21814;SDS011;11069;48.988;8.450;2023-08-21T00:45:13;10.00;;;8.93;;
21814;SDS011;11069;48.988;8.450;2023-08-21T00:47:38;11.57;;;9.60;;
21814;SDS011;11069;48.988;8.450;2023-08-21T00:50:05;11.77;;;9.45;;
21814;SDS011;11069;48.988;8.450;2023-08-21T00:52:32;11.20;;;9.85;;
21814;SDS011;11069;48.988;8.450;2023-08-21T00:55:00;13.60;;;10.30;;
21814;SDS011;11069;48.988;8.450;2023-08-21T00:57:26;11.95;;;10.18;;
21814;SDS011;11069;48.988;8.450;2023-08-21T00:59:52;12.48;;;10.02;;
21814;SDS011;11069;48.988;8.450;2023-08-21T01:02:18;12.48;;;10.00;;
21814;SDS011;11069;48.988;8.450;2023-08-21T01:04:44;12.68;;;10.20;;
21814;SDS011;11069;48.988;8.450;2023-08-21T01:07:10;10.98;;;9.75;;
21814;SDS011;11069;48.988;8.450;2023-08-21T01:09:39;11.65;;;9.65;;
21814;SDS011;11069;48.988;8.450;2023-08-21T01:12:37;13.60;;;10.32;;
21814;SDS011;11069;48.988;8.450;2023-08-21T01:15:15;11.75;;;10.38;;
21814;SDS011;11069;48.988;8.450;2023-08-21T01:17:40;12.20;;;10.27;;
21814;SDS011;11069;48.988;8.450;2023-08-21T01:20:08;12.93;;;10.50;;
21814;SDS011;11069;48.988;8.450;2023-08-21T01:22:38;11.70;;;9.77;;
21814;SDS011;11069;48.988;8.450;2023-08-21T01:25:05;12.48;;;10.35;;
21814;SDS011;11069;48.988;8.450;2023-08-21T01:27:31;11.05;;;9.95;;
21814;SDS011;11069;48.988;8.450;2023-08-21T01:29:58;13.70;;;9.77;;
21814;SDS011;11069;48.988;8.450;2023-08-21T01:32:27;11.23;;;9.90;;
21814;SDS011;11069;48.988;8.450;2023-08-21T01:34:59;10.90;;;9.68;;
21814;SDS011;11069;48.988;8.450;2023-08-21T01:37:26;12.15;;;10.52;;
21814;SDS011;11069;48.988;8.450;2023-08-21T01:39:53;14.02;;;9.77;;
21814;SDS011;11069;48.988;8.450;2023-08-21T01:42:22;11.02;;;9.93;;
21814;SDS011;11069;48.988;8.450;2023-08-21T01:44:48;12.00;;;10.00;;
21814;SDS011;11069;48.988;8.450;2023-08-21T01:47:13;14.63;;;10.02;;
21814;SDS011;11069;48.988;8.450;2023-08-21T01:49:39;10.65;;;9.40;;
21814;SDS011;11069;48.988;8.450;2023-08-21T01:52:04;10.38;;;8.77;;
21814;SDS011;11069;48.988;8.450;2023-08-21T01:54:30;13.23;;;9.82;;
21814;SDS011;11069;48.988;8.450;2023-08-21T01:56:55;10.38;;;9.27;;
21814;SDS011;11069;48.988;8.450;2023-08-21T01:59:22;11.60;;;9.32;;
21814;SDS011;11069;48.988;8.450;2023-08-21T02:01:49;10.25;;;8.93;;
21814;SDS011;11069;48.988;8.450;2023-08-21T02:04:14;12.20;;;9.95;;
21814;SDS011;11069;48.988;8.450;2023-08-21T02:06:40;10.90;;;9.55;;
21814;SDS011;11069;48.988;8.450;2023-08-21T02:09:06;12.20;;;9.63;;
21814;SDS011;11069;48.988;8.450;2023-08-21T02:11:31;10.85;;;9.65;;
21814;SDS011;11069;48.988;8.450;2023-08-21T02:13:57;12.18;;;9.32;;
21814;SDS011;11069;48.988;8.450;2023-08-21T02:16:23;12.35;;;10.05;;
21814;SDS011;11069;48.988;8.450;2023-08-21T02:18:48;13.98;;;10.52;;
21814;SDS011;11069;48.988;8.450;2023-08-21T02:21:14;11.45;;;9.48;;
21814;SDS011;11069;48.988;8.450;2023-08-21T02:23:39;14.43;;;10.85;;
21814;SDS011;11069;48.988;8.450;2023-08-21T02:26:05;12.05;;;9.48;;
21814;SDS011;11069;48.988;8.450;2023-08-21T02:28:30;13.88;;;10.10;;
21814;SDS011;11069;48.988;8.450;2023-08-21T02:30:56;15.32;;;10.55;;
21814;SDS011;11069;48.988;8.450;2023-08-21T02:33:22;12.45;;;10.10;;
21814;SDS011;11069;48.988;8.450;2023-08-21T02:35:47;13.52;;;10.80;;
21814;SDS011;11069;48.988;8.450;2023-08-21T02:38:13;12.13;;;9.73;;
21814;SDS011;11069;48.988;8.450;2023-08-21T02:40:38;11.48;;;10.18;;
21814;SDS011;11069;48.988;8.450;2023-08-21T02:43:04;11.05;;;9.95;;
21814;SDS011;11069;48.988;8.450;2023-08-21T02:45:30;11.15;;;10.05;;
21814;SDS011;11069;48.988;8.450;2023-08-21T02:47:56;13.63;;;10.32;;
21814;SDS011;11069;48.988;8.450;2023-08-21T02:50:21;11.98;;;10.27;;
21814;SDS011;11069;48.988;8.450;2023-08-21T02:52:47;13.65;;;10.38;;
21814;SDS011;11069;48.988;8.450;2023-08-21T02:55:12;11.45;;;10.35;;
21814;SDS011;11069;48.988;8.450;2023-08-21T02:57:39;12.20;;;10.88;;
21814;SDS011;11069;48.988;8.450;2023-08-21T03:00:04;13.05;;;10.85;;
21814;SDS011;11069;48.988;8.450;2023-08-21T03:02:32;11.60;;;9.90;;
21814;SDS011;11069;48.988;8.450;2023-08-21T03:04:58;12.82;;;9.57;;
21814;SDS011;11069;48.988;8.450;2023-08-21T03:07:23;11.52;;;10.05;;
21814;SDS011;11069;48.988;8.450;2023-08-21T03:09:49;10.00;;;8.80;;
21814;SDS011;11069;48.988;8.450;2023-08-21T03:12:15;10.25;;;9.18;;
21814;SDS011;11069;48.988;8.450;2023-08-21T03:14:40;11.38;;;9.27;;
21814;SDS011;11069;48.988;8.450;2023-08-21T03:17:06;10.60;;;9.48;;
21814;SDS011;11069;48.988;8.450;2023-08-21T03:19:32;10.75;;;9.02;;
21814;SDS011;11069;48.988;8.450;2023-08-21T03:21:57;13.73;;;9.70;;
21814;SDS011;11069;48.988;8.450;2023-08-21T03:24:23;11.45;;;8.93;;
21814;SDS011;11069;48.988;8.450;2023-08-21T03:26:48;11.70;;;9.85;;
21814;SDS011;11069;48.988;8.450;2023-08-21T03:29:14;11.80;;;9.40;;
21814;SDS011;11069;48.988;8.450;2023-08-21T03:31:39;9.98;;;9.00;;
21814;SDS011;11069;48.988;8.450;2023-08-21T03:34:05;13.38;;;9.85;;
21814;SDS011;11069;48.988;8.450;2023-08-21T03:36:30;10.18;;;9.18;;
21814;SDS011;11069;48.988;8.450;2023-08-21T03:38:59;12.23;;;9.20;;
21814;SDS011;11069;48.988;8.450;2023-08-21T03:41:25;10.95;;;9.40;;
21814;SDS011;11069;48.988;8.450;2023-08-21T03:43:51;14.45;;;9.40;;
21814;SDS011;11069;48.988;8.450;2023-08-21T03:46:17;12.70;;;9.18;;
21814;SDS011;11069;48.988;8.450;2023-08-21T03:48:43;10.27;;;8.80;;
21814;SDS011;11069;48.988;8.450;2023-08-21T03:51:08;13.23;;;8.70;;
21814;SDS011;11069;48.988;8.450;2023-08-21T03:53:34;12.15;;;9.25;;
21814;SDS011;11069;48.988;8.450;2023-08-21T03:56:00;11.90;;;9.05;;
21814;SDS011;11069;48.988;8.450;2023-08-21T03:58:25;14.25;;;8.88;;
21814;SDS011;11069;48.988;8.450;2023-08-21T04:00:52;9.48;;;8.55;;
21814;SDS011;11069;48.988;8.450;2023-08-21T04:03:17;10.45;;;8.80;;
21814;SDS011;11069;48.988;8.450;2023-08-21T04:05:43;12.95;;;9.60;;
21814;SDS011;11069;48.988;8.450;2023-08-21T04:08:09;10.80;;;9.63;;
21814;SDS011;11069;48.988;8.450;2023-08-21T04:10:34;12.32;;;9.43;;
21814;SDS011;11069;48.988;8.450;2023-08-21T04:13:00;11.80;;;9.52;;
21814;SDS011;11069;48.988;8.450;2023-08-21T04:15:26;10.32;;;9.32;;
21814;SDS011;11069;48.988;8.450;2023-08-21T04:17:51;10.10;;;9.02;;
21814;SDS011;11069;48.988;8.450;2023-08-21T04:20:17;12.13;;;9.40;;
21814;SDS011;11069;48.988;8.450;2023-08-21T04:22:46;13.25;;;8.95;;
21814;SDS011;11069;48.988;8.450;2023-08-21T04:25:12;9.82;;;8.82;;
21814;SDS011;11069;48.988;8.450;2023-08-21T04:27:38;10.45;;;8.65;;
21814;SDS011;11069;48.988;8.450;2023-08-21T04:30:04;9.88;;;8.88;;
21814;SDS011;11069;48.988;8.450;2023-08-21T04:32:30;12.85;;;9.60;;
21814;SDS011;11069;48.988;8.450;2023-08-21T04:34:56;10.75;;;9.13;;
21814;SDS011;11069;48.988;8.450;2023-08-21T04:37:21;10.48;;;9.38;;
21814;SDS011;11069;48.988;8.450;2023-08-21T04:39:54;10.85;;;9.60;;
21814;SDS011;11069;48.988;8.450;2023-08-21T04:42:21;11.93;;;9.80;;
21814;SDS011;11069;48.988;8.450;2023-08-21T04:44:47;11.10;;;9.73;;
21814;SDS011;11069;48.988;8.450;2023-08-21T04:47:46;12.85;;;9.88;;
21814;SDS011;11069;48.988;8.450;2023-08-21T04:50:04;11.73;;;9.70;;
21814;SDS011;11069;48.988;8.450;2023-08-21T04:52:30;13.18;;;10.15;;
21814;SDS011;11069;48.988;8.450;2023-08-21T04:54:56;10.82;;;9.73;;
21814;SDS011;11069;48.988;8.450;2023-08-21T04:57:22;11.63;;;9.90;;
21814;SDS011;11069;48.988;8.450;2023-08-21T04:59:47;11.77;;;9.93;;
21814;SDS011;11069;48.988;8.450;2023-08-21T05:02:13;11.20;;;9.38;;
21814;SDS011;11069;48.988;8.450;2023-08-21T05:04:39;10.93;;;9.73;;
21814;SDS011;11069;48.988;8.450;2023-08-21T05:07:05;11.35;;;10.25;;
21814;SDS011;11069;48.988;8.450;2023-08-21T05:09:31;14.10;;;11.20;;
21814;SDS011;11069;48.988;8.450;2023-08-21T05:11:57;12.25;;;10.18;;
21814;SDS011;11069;48.988;8.450;2023-08-21T05:14:22;11.38;;;9.60;;
21814;SDS011;11069;48.988;8.450;2023-08-21T05:16:48;12.02;;;10.32;;
21814;SDS011;11069;48.988;8.450;2023-08-21T05:19:15;11.02;;;9.88;;
21814;SDS011;11069;48.988;8.450;2023-08-21T05:21:43;12.18;;;10.30;;
21814;SDS011;11069;48.988;8.450;2023-08-21T05:24:29;13.30;;;11.00;;
21814;SDS011;11069;48.988;8.450;2023-08-21T05:27:00;15.80;;;10.43;;
21814;SDS011;11069;48.988;8.450;2023-08-21T05:29:25;12.50;;;10.45;;
21814;SDS011;11069;48.988;8.450;2023-08-21T05:31:51;12.43;;;10.30;;
21814;SDS011;11069;48.988;8.450;2023-08-21T05:34:16;11.80;;;10.57;;
21814;SDS011;11069;48.988;8.450;2023-08-21T05:36:42;11.65;;;10.45;;
21814;SDS011;11069;48.988;8.450;2023-08-21T05:39:07;11.68;;;10.35;;
21814;SDS011;11069;48.988;8.450;2023-08-21T05:41:33;14.10;;;10.70;;
21814;SDS011;11069;48.988;8.450;2023-08-21T05:43:59;12.35;;;10.48;;
21814;SDS011;11069;48.988;8.450;2023-08-21T05:46:25;12.52;;;9.95;;
21814;SDS011;11069;48.988;8.450;2023-08-21T05:48:50;12.88;;;9.85;;
21814;SDS011;11069;48.988;8.450;2023-08-21T05:51:16;13.20;;;9.82;;
21814;SDS011;11069;48.988;8.450;2023-08-21T05:53:41;12.73;;;9.63;;
21814;SDS011;11069;48.988;8.450;2023-08-21T05:56:07;12.32;;;9.50;;
21814;SDS011;11069;48.988;8.450;2023-08-21T05:58:32;11.48;;;9.20;;
21814;SDS011;11069;48.988;8.450;2023-08-21T06:00:58;10.57;;;8.73;;
21814;SDS011;11069;48.988;8.450;2023-08-21T06:03:24;11.63;;;9.55;;
21814;SDS011;11069;48.988;8.450;2023-08-21T06:05:49;10.23;;;9.23;;
21814;SDS011;11069;48.988;8.450;2023-08-21T06:08:15;10.38;;;9.27;;
21814;SDS011;11069;48.988;8.450;2023-08-21T06:10:41;11.57;;;8.93;;
21814;SDS011;11069;48.988;8.450;2023-08-21T06:13:06;10.93;;;8.57;;
21814;SDS011;11069;48.988;8.450;2023-08-21T06:15:33;12.82;;;10.38;;
21814;SDS011;11069;48.988;8.450;2023-08-21T06:17:58;13.02;;;9.57;;
21814;SDS011;11069;48.988;8.450;2023-08-21T06:20:25;10.88;;;8.90;;
21814;SDS011;11069;48.988;8.450;2023-08-21T06:22:51;12.70;;;9.73;;
21814;SDS011;11069;48.988;8.450;2023-08-21T06:25:19;11.48;;;9.80;;
21814;SDS011;11069;48.988;8.450;2023-08-21T06:27:48;12.02;;;9.63;;
21814;SDS011;11069;48.988;8.450;2023-08-21T06:30:14;12.02;;;9.30;;
21814;SDS011;11069;48.988;8.450;2023-08-21T06:32:41;16.35;;;10.05;;
21814;SDS011;11069;48.988;8.450;2023-08-21T06:35:07;11.82;;;9.68;;
21814;SDS011;11069;48.988;8.450;2023-08-21T06:37:33;10.40;;;8.98;;
21814;SDS011;11069;48.988;8.450;2023-08-21T06:39:59;13.98;;;9.68;;
21814;SDS011;11069;48.988;8.450;2023-08-21T06:42:24;13.23;;;9.30;;
21814;SDS011;11069;48.988;8.450;2023-08-21T06:44:50;10.60;;;8.98;;
21814;SDS011;11069;48.988;8.450;2023-08-21T06:47:15;11.48;;;8.75;;
21814;SDS011;11069;48.988;8.450;2023-08-21T06:49:41;10.85;;;8.63;;
21814;SDS011;11069;48.988;8.450;2023-08-21T06:52:07;11.65;;;8.98;;
21814;SDS011;11069;48.988;8.450;2023-08-21T06:54:32;11.15;;;8.40;;
21814;SDS011;11069;48.988;8.450;2023-08-21T06:56:58;13.27;;;8.30;;
21814;SDS011;11069;48.988;8.450;2023-08-21T06:59:24;11.73;;;8.77;;
21814;SDS011;11069;48.988;8.450;2023-08-21T07:01:49;11.80;;;8.63;;
21814;SDS011;11069;48.988;8.450;2023-08-21T07:04:16;12.95;;;9.10;;
21814;SDS011;11069;48.988;8.450;2023-08-21T07:06:42;10.07;;;8.05;;
21814;SDS011;11069;48.988;8.450;2023-08-21T07:09:07;10.40;;;8.82;;
21814;SDS011;11069;48.988;8.450;2023-08-21T07:11:33;10.68;;;8.25;;
21814;SDS011;11069;48.988;8.450;2023-08-21T07:13:59;11.43;;;8.38;;
21814;SDS011;11069;48.988;8.450;2023-08-21T07:16:25;11.82;;;7.90;;
21814;SDS011;11069;48.988;8.450;2023-08-21T07:18:51;8.60;;;7.60;;
21814;SDS011;11069;48.988;8.450;2023-08-21T07:21:17;10.02;;;8.07;;
21814;SDS011;11069;48.988;8.450;2023-08-21T07:23:42;10.93;;;8.88;;
21814;SDS011;11069;48.988;8.450;2023-08-21T07:26:09;9.52;;;8.30;;
21814;SDS011;11069;48.988;8.450;2023-08-21T07:28:35;10.80;;;7.85;;
21814;SDS011;11069;48.988;8.450;2023-08-21T07:31:01;10.10;;;7.63;;
21814;SDS011;11069;48.988;8.450;2023-08-21T07:33:27;10.50;;;8.13;;
21814;SDS011;11069;48.988;8.450;2023-08-21T07:36:02;9.10;;;7.35;;
21814;SDS011;11069;48.988;8.450;2023-08-21T07:38:29;9.07;;;7.00;;
21814;SDS011;11069;48.988;8.450;2023-08-21T07:41:05;11.73;;;8.43;;
21814;SDS011;11069;48.988;8.450;2023-08-21T07:43:32;8.20;;;7.20;;
21814;SDS011;11069;48.988;8.450;2023-08-21T07:46:01;10.20;;;6.93;;
21814;SDS011;11069;48.988;8.450;2023-08-21T07:48:30;9.82;;;7.45;;
21814;SDS011;11069;48.988;8.450;2023-08-21T07:50:56;12.02;;;8.18;;
21814;SDS011;11069;48.988;8.450;2023-08-21T07:53:22;11.40;;;7.63;;
21814;SDS011;11069;48.988;8.450;2023-08-21T07:55:48;9.98;;;8.25;;
21814;SDS011;11069;48.988;8.450;2023-08-21T07:58:14;9.07;;;7.95;;
21814;SDS011;11069;48.988;8.450;2023-08-21T08:00:40;9.95;;;7.75;;
21814;SDS011;11069;48.988;8.450;2023-08-21T08:03:07;9.68;;;7.97;;
21814;SDS011;11069;48.988;8.450;2023-08-21T08:05:33;12.45;;;8.00;;
21814;SDS011;11069;48.988;8.450;2023-08-21T08:07:59;8.77;;;7.85;;
21814;SDS011;11069;48.988;8.450;2023-08-21T08:10:25;8.80;;;7.88;;
21814;SDS011;11069;48.988;8.450;2023-08-21T08:12:51;9.20;;;7.25;;
21814;SDS011;11069;48.988;8.450;2023-08-21T08:15:19;11.07;;;7.60;;
21814;SDS011;11069;48.988;8.450;2023-08-21T08:17:47;9.85;;;7.50;;
21814;SDS011;11069;48.988;8.450;2023-08-21T08:20:17;9.25;;;7.40;;
21814;SDS011;11069;48.988;8.450;2023-08-21T08:22:43;9.18;;;7.13;;
21814;SDS011;11069;48.988;8.450;2023-08-21T08:25:08;9.57;;;7.63;;
21814;SDS011;11069;48.988;8.450;2023-08-21T08:27:35;11.35;;;8.05;;
21814;SDS011;11069;48.988;8.450;2023-08-21T08:30:00;11.52;;;7.30;;
21814;SDS011;11069;48.988;8.450;2023-08-21T08:32:26;12.50;;;7.03;;
21814;SDS011;11069;48.988;8.450;2023-08-21T08:34:52;9.90;;;7.05;;
21814;SDS011;11069;48.988;8.450;2023-08-21T08:37:18;6.90;;;6.20;;
21814;SDS011;11069;48.988;8.450;2023-08-21T08:39:45;8.95;;;6.82;;
21814;SDS011;11069;48.988;8.450;2023-08-21T08:42:11;8.98;;;6.22;;
21814;SDS011;11069;48.988;8.450;2023-08-21T08:44:37;8.73;;;6.32;;
21814;SDS011;11069;48.988;8.450;2023-08-21T08:47:06;8.20;;;6.93;;
21814;SDS011;11069;48.988;8.450;2023-08-21T08:49:38;8.55;;;6.43;;
21814;SDS011;11069;48.988;8.450;2023-08-21T08:52:04;8.55;;;6.20;;
21814;SDS011;11069;48.988;8.450;2023-08-21T08:54:30;8.18;;;6.47;;
21814;SDS011;11069;48.988;8.450;2023-08-21T08:56:56;8.35;;;6.53;;
21814;SDS011;11069;48.988;8.450;2023-08-21T08:59:23;7.53;;;6.13;;
21814;SDS011;11069;48.988;8.450;2023-08-21T09:01:48;8.05;;;6.18;;
21814;SDS011;11069;48.988;8.450;2023-08-21T09:04:14;8.90;;;7.10;;
21814;SDS011;11069;48.988;8.450;2023-08-21T09:06:40;7.38;;;6.40;;
21814;SDS011;11069;48.988;8.450;2023-08-21T09:09:08;9.23;;;6.40;;
21814;SDS011;11069;48.988;8.450;2023-08-21T09:11:41;8.27;;;6.07;;
21814;SDS011;11069;48.988;8.450;2023-08-21T09:14:08;7.78;;;6.63;;
21814;SDS011;11069;48.988;8.450;2023-08-21T09:16:35;6.70;;;5.93;;
21814;SDS011;11069;48.988;8.450;2023-08-21T09:19:01;8.68;;;6.65;;
21814;SDS011;11069;48.988;8.450;2023-08-21T09:21:26;9.98;;;6.65;;
21814;SDS011;11069;48.988;8.450;2023-08-21T09:24:00;8.07;;;6.00;;
21814;SDS011;11069;48.988;8.450;2023-08-21T09:26:29;9.77;;;6.63;;
21814;SDS011;11069;48.988;8.450;2023-08-21T09:28:57;7.93;;;6.35;;
21814;SDS011;11069;48.988;8.450;2023-08-21T09:31:29;7.85;;;6.20;;
21814;SDS011;11069;48.988;8.450;2023-08-21T09:33:56;8.35;;;6.18;;
21814;SDS011;11069;48.988;8.450;2023-08-21T09:36:24;9.52;;;6.72;;
21814;SDS011;11069;48.988;8.450;2023-08-21T09:38:50;6.75;;;5.65;;
21814;SDS011;11069;48.988;8.450;2023-08-21T09:41:20;10.48;;;6.32;;
21814;SDS011;11069;48.988;8.450;2023-08-21T09:43:50;8.82;;;6.95;;
21814;SDS011;11069;48.988;8.450;2023-08-21T09:46:16;6.63;;;5.90;;
21814;SDS011;11069;48.988;8.450;2023-08-21T09:48:45;7.93;;;6.03;;
21814;SDS011;11069;48.988;8.450;2023-08-21T09:51:11;8.48;;;5.72;;
21814;SDS011;11069;48.988;8.450;2023-08-21T09:53:37;7.35;;;6.47;;
21814;SDS011;11069;48.988;8.450;2023-08-21T09:56:04;7.50;;;5.93;;
21814;SDS011;11069;48.988;8.450;2023-08-21T09:58:30;7.95;;;5.95;;
21814;SDS011;11069;48.988;8.450;2023-08-21T10:00:57;6.93;;;5.55;;
21814;SDS011;11069;48.988;8.450;2023-08-21T10:03:23;8.52;;;5.72;;
21814;SDS011;11069;48.988;8.450;2023-08-21T10:05:49;8.90;;;5.78;;
21814;SDS011;11069;48.988;8.450;2023-08-21T10:08:18;7.38;;;5.53;;
21814;SDS011;11069;48.988;8.450;2023-08-21T10:10:48;7.07;;;6.00;;
21814;SDS011;11069;48.988;8.450;2023-08-21T10:13:13;6.68;;;5.72;;
21814;SDS011;11069;48.988;8.450;2023-08-21T10:15:39;8.18;;;5.78;;
21814;SDS011;11069;48.988;8.450;2023-08-21T10:18:51;7.07;;;5.63;;
21814;SDS011;11069;48.988;8.450;2023-08-21T10:20:56;11.70;;;6.38;;
21814;SDS011;11069;48.988;8.450;2023-08-21T10:23:39;7.70;;;5.72;;
21814;SDS011;11069;48.988;8.450;2023-08-21T10:26:05;7.07;;;5.72;;
21814;SDS011;11069;48.988;8.450;2023-08-21T10:31:26;9.55;;;6.38;;
21814;SDS011;11069;48.988;8.450;2023-08-21T10:33:53;8.02;;;5.80;;
21814;SDS011;11069;48.988;8.450;2023-08-21T10:39:05;8.80;;;5.35;;
21814;SDS011;11069;48.988;8.450;2023-08-21T10:41:52;6.88;;;5.50;;
21814;SDS011;11069;48.988;8.450;2023-08-21T10:47:18;6.70;;;5.15;;
21814;SDS011;11069;48.988;8.450;2023-08-21T10:54:52;4.82;;;4.35;;
21814;SDS011;11069;48.988;8.450;2023-08-21T10:57:19;7.18;;;4.40;;
21814;SDS011;11069;48.988;8.450;2023-08-21T10:59:49;7.13;;;4.68;;
21814;SDS011;11069;48.988;8.450;2023-08-21T11:02:38;5.32;;;4.07;;
21814;SDS011;11069;48.988;8.450;2023-08-21T11:05:05;5.53;;;4.00;;
21814;SDS011;11069;48.988;8.450;2023-08-21T11:07:40;6.18;;;4.20;;
21814;SDS011;11069;48.988;8.450;2023-08-21T11:10:10;6.40;;;4.20;;
21814;SDS011;11069;48.988;8.450;2023-08-21T11:12:37;5.85;;;4.53;;
21814;SDS011;11069;48.988;8.450;2023-08-21T11:15:03;4.68;;;4.18;;
21814;SDS011;11069;48.988;8.450;2023-08-21T11:17:29;5.75;;;4.53;;
21814;SDS011;11069;48.988;8.450;2023-08-21T11:19:55;7.63;;;4.10;;
21814;SDS011;11069;48.988;8.450;2023-08-21T11:22:27;4.88;;;4.15;;
21814;SDS011;11069;48.988;8.450;2023-08-21T11:24:55;4.75;;;4.00;;
21814;SDS011;11069;48.988;8.450;2023-08-21T11:27:20;6.97;;;3.78;;
21814;SDS011;11069;48.988;8.450;2023-08-21T11:29:48;5.75;;;4.38;;
21814;SDS011;11069;48.988;8.450;2023-08-21T11:32:16;6.97;;;4.25;;
21814;SDS011;11069;48.988;8.450;2023-08-21T11:34:47;7.22;;;4.25;;
21814;SDS011;11069;48.988;8.450;2023-08-21T11:37:13;6.10;;;3.97;;
21814;SDS011;11069;48.988;8.450;2023-08-21T11:39:39;6.70;;;4.47;;
21814;SDS011;11069;48.988;8.450;2023-08-21T11:42:09;5.35;;;4.13;;
21814;SDS011;11069;48.988;8.450;2023-08-21T11:44:46;6.88;;;4.78;;
21814;SDS011;11069;48.988;8.450;2023-08-21T11:47:16;5.80;;;4.35;;
21814;SDS011;11069;48.988;8.450;2023-08-21T11:49:43;6.47;;;4.40;;
21814;SDS011;11069;48.988;8.450;2023-08-21T11:52:12;5.90;;;4.65;;
21814;SDS011;11069;48.988;8.450;2023-08-21T11:54:39;6.22;;;4.50;;
21814;SDS011;11069;48.988;8.450;2023-08-21T11:57:12;7.95;;;4.78;;
21814;SDS011;11069;48.988;8.450;2023-08-21T11:59:39;4.57;;;3.70;;
21814;SDS011;11069;48.988;8.450;2023-08-21T12:02:24;7.78;;;4.35;;
21814;SDS011;11069;48.988;8.450;2023-08-21T12:07:19;7.18;;;4.30;;
21814;SDS011;11069;48.988;8.450;2023-08-21T12:09:48;10.00;;;4.60;;
21814;SDS011;11069;48.988;8.450;2023-08-21T12:12:14;6.95;;;4.60;;
21814;SDS011;11069;48.988;8.450;2023-08-21T12:14:40;8.10;;;4.60;;
21814;SDS011;11069;48.988;8.450;2023-08-21T12:17:05;5.78;;;4.65;;
21814;SDS011;11069;48.988;8.450;2023-08-21T12:19:32;6.63;;;4.38;;
21814;SDS011;11069;48.988;8.450;2023-08-21T12:21:57;6.43;;;4.82;;
21814;SDS011;11069;48.988;8.450;2023-08-21T12:24:23;6.38;;;4.63;;
21814;SDS011;11069;48.988;8.450;2023-08-21T12:26:49;6.07;;;4.63;;
21814;SDS011;11069;48.988;8.450;2023-08-21T12:29:15;6.20;;;4.90;;
21814;SDS011;11069;48.988;8.450;2023-08-21T12:31:40;7.97;;;4.63;;
21814;SDS011;11069;48.988;8.450;2023-08-21T12:34:06;5.30;;;4.63;;
21814;SDS011;11069;48.988;8.450;2023-08-21T12:36:34;4.95;;;4.20;;
21814;SDS011;11069;48.988;8.450;2023-08-21T12:39:01;6.53;;;4.28;;
21814;SDS011;11069;48.988;8.450;2023-08-21T12:41:27;7.55;;;4.70;;
21814;SDS011;11069;48.988;8.450;2023-08-21T12:43:53;6.63;;;4.60;;
21814;SDS011;11069;48.988;8.450;2023-08-21T12:46:18;6.93;;;5.00;;
21814;SDS011;11069;48.988;8.450;2023-08-21T12:48:44;10.07;;;5.00;;
21814;SDS011;11069;48.988;8.450;2023-08-21T12:51:09;5.55;;;4.82;;
21814;SDS011;11069;48.988;8.450;2023-08-21T12:53:35;7.88;;;5.13;;
21814;SDS011;11069;48.988;8.450;2023-08-21T12:56:01;6.05;;;4.85;;
21814;SDS011;11069;48.988;8.450;2023-08-21T12:58:26;8.38;;;5.63;;
21814;SDS011;11069;48.988;8.450;2023-08-21T13:00:53;6.47;;;4.88;;
21814;SDS011;11069;48.988;8.450;2023-08-21T13:03:19;8.02;;;5.20;;
21814;SDS011;11069;48.988;8.450;2023-08-21T13:05:45;5.43;;;4.60;;
21814;SDS011;11069;48.988;8.450;2023-08-21T13:08:10;6.28;;;5.00;;
21814;SDS011;11069;48.988;8.450;2023-08-21T13:10:36;6.80;;;5.32;;
21814;SDS011;11069;48.988;8.450;2023-08-21T13:13:02;9.10;;;5.38;;
21814;SDS011;11069;48.988;8.450;2023-08-21T13:15:28;7.00;;;4.95;;
21814;SDS011;11069;48.988;8.450;2023-08-21T13:17:53;6.72;;;5.07;;
21814;SDS011;11069;48.988;8.450;2023-08-21T13:20:19;6.60;;;5.70;;
21814;SDS011;11069;48.988;8.450;2023-08-21T13:25:12;7.78;;;5.18;;
21814;SDS011;11069;48.988;8.450;2023-08-21T13:27:37;6.50;;;5.20;;
21814;SDS011;11069;48.988;8.450;2023-08-21T13:30:03;5.30;;;4.80;;
21814;SDS011;11069;48.988;8.450;2023-08-21T13:32:30;6.85;;;5.10;;
21814;SDS011;11069;48.988;8.450;2023-08-21T13:34:56;6.95;;;4.72;;
21814;SDS011;11069;48.988;8.450;2023-08-21T13:37:21;5.53;;;5.03;;
21814;SDS011;11069;48.988;8.450;2023-08-21T13:39:47;7.88;;;5.10;;
21814;SDS011;11069;48.988;8.450;2023-08-21T13:42:13;7.38;;;4.72;;
21814;SDS011;11069;48.988;8.450;2023-08-21T13:44:38;7.15;;;5.07;;
21814;SDS011;11069;48.988;8.450;2023-08-21T13:47:04;7.40;;;5.28;;
21814;SDS011;11069;48.988;8.450;2023-08-21T13:49:30;8.88;;;5.15;;
21814;SDS011;11069;48.988;8.450;2023-08-21T13:51:55;6.75;;;5.00;;
21814;SDS011;11069;48.988;8.450;2023-08-21T13:54:21;7.22;;;5.40;;
21814;SDS011;11069;48.988;8.450;2023-08-21T13:56:46;5.80;;;5.18;;
21814;SDS011;11069;48.988;8.450;2023-08-21T13:59:12;8.70;;;5.07;;
21814;SDS011;11069;48.988;8.450;2023-08-21T14:01:38;10.85;;;5.82;;
21814;SDS011;11069;48.988;8.450;2023-08-21T14:04:04;7.88;;;4.75;;
21814;SDS011;11069;48.988;8.450;2023-08-21T14:06:29;6.15;;;4.90;;
21814;SDS011;11069;48.988;8.450;2023-08-21T14:08:55;6.68;;;5.20;;
21814;SDS011;11069;48.988;8.450;2023-08-21T14:11:21;7.15;;;5.03;;
21814;SDS011;11069;48.988;8.450;2023-08-21T14:13:46;7.15;;;5.15;;
21814;SDS011;11069;48.988;8.450;2023-08-21T14:16:12;6.63;;;5.17;;
21814;SDS011;11069;48.988;8.450;2023-08-21T14:18:38;6.93;;;5.32;;
21814;SDS011;11069;48.988;8.450;2023-08-21T14:21:03;6.38;;;5.38;;
21814;SDS011;11069;48.988;8.450;2023-08-21T14:23:29;5.68;;;4.97;;
21814;SDS011;11069;48.988;8.450;2023-08-21T14:25:55;5.97;;;5.13;;
21814;SDS011;11069;48.988;8.450;2023-08-21T14:28:21;5.60;;;4.60;;
21814;SDS011;11069;48.988;8.450;2023-08-21T14:30:46;5.93;;;4.60;;
21814;SDS011;11069;48.988;8.450;2023-08-21T14:33:12;5.72;;;5.15;;
21814;SDS011;11069;48.988;8.450;2023-08-21T14:35:37;9.35;;;4.82;;
21814;SDS011;11069;48.988;8.450;2023-08-21T14:38:03;7.65;;;5.60;;
21814;SDS011;11069;48.988;8.450;2023-08-21T14:40:29;5.32;;;4.82;;
21814;SDS011;11069;48.988;8.450;2023-08-21T14:42:54;4.93;;;4.32;;
21814;SDS011;11069;48.988;8.450;2023-08-21T14:45:20;4.85;;;3.85;;
21814;SDS011;11069;48.988;8.450;2023-08-21T14:47:46;5.20;;;3.58;;
21814;SDS011;11069;48.988;8.450;2023-08-21T14:50:11;4.72;;;3.10;;
21814;SDS011;11069;48.988;8.450;2023-08-21T14:52:37;7.43;;;3.53;;
21814;SDS011;11069;48.988;8.450;2023-08-21T14:55:03;6.85;;;3.67;;